Accueil
METAR-TAF:

METAR-TAF

Aéroports :

Lyndonville, Vermont, États-Unis

latitude: 44-34-09N, longitude: 072-01-05W, altitude: 362 m

Observation

Le bulletin a été fait il y a 8 minutes, à 05:16 UTC
Vent 13 kt de ouest/sud-ouest avec des rafales jusqu'à 20 kt
Température 11°C
Humidité 82%
Pression 1006 hPa
Visibilité: 11.3 km
Nuages épars à une hauteur de 1800 ft
Nuages fragmentés à une hauteur de 3800 ft
Ciel couvert à une hauteur de 5000 ft
pluie

METAR: KCDA 210516Z AUTO 25013G20KT 7SM RA SCT018 BKN038 OVC050 11/08 A2972 RMK AO2 T01110079

Heure: 01:24 (05:24 UTC)


TAF: absent

Observations et prévisions météorologiques de plus de 4000 aéroports (messages METAR et TAF).

Les stations disponibles sont représentées par des disques jaunes et rouges sur la carte.

Passer la souris dessus pour voir le nom de la station.

Cliquer dessus pour voir les observations et prévisions météorologiques.

Pour changer de carte: cliquez sur les boutons verts avec une croix noire pour zoomer, sur le bouton vert avec un tiret pour effectuer un zoom arrière, ou sur les flèches vertes pour les cartes adjacentes.


METAR-TAF: